Time;durP1;ratioP1;P1;durP2;ratioP2;P2;SDS_P1;SDS_P2;PMS_P1;PMS_P2;Temp;Humidity;BMP_temperature;BMP_pressure;BME280_temperature;BME280_humidity;BME280_pressure;Samples;Min_cycle;Max_cycle;Signal;HPM_P1;HPM_P2
2022/12/30 00:00:26;;;;;;;50.40;8.10;;;6.90;99.90;;;;;;4975817;28;20039;-67
2022/12/30 00:02:51;;;;;;;66.95;8.30;;;6.80;99.90;;;;;;4973323;28;20145;-67
2022/12/30 00:05:17;;;;;;;55.92;7.20;;;6.80;99.90;;;;;;4975969;28;20023;-67
2022/12/30 00:07:42;;;;;;;60.13;9.77;;;6.70;99.90;;;;;;4975632;28;20498;-67
2022/12/30 00:10:08;;;;;;;46.90;7.68;;;6.70;99.90;;;;;;4975641;28;20063;-67
2022/12/30 00:35:00;;;;;;;61.70;9.38;;;6.60;99.90;;;;;;4956280;29;20103;-67
2022/12/30 00:37:25;;;;;;;57.92;7.40;;;6.70;99.90;;;;;;4968017;28;20438;-67
2022/12/30 00:39:52;;;;;;;54.83;8.98;;;6.70;99.90;;;;;;4975390;28;20035;-67
2022/12/30 00:45:02;;;;;;;59.88;8.93;;;6.60;99.90;;;;;;4971892;28;20550;-67
2022/12/30 00:47:28;;;;;;;73.68;8.27;;;6.70;99.90;;;;;;4973826;28;20406;-67
2022/12/30 00:58:06;;;;;;;75.15;10.02;;;6.60;99.90;;;;;;4974847;28;20273;-67
2022/12/30 01:00:31;;;;;;;70.07;9.10;;;6.60;99.90;;;;;;4974776;28;20039;-67
2022/12/30 01:02:57;;;;;;;73.45;9.82;;;6.60;99.90;;;;;;4974775;28;20030;-67
2022/12/30 01:05:22;;;;;;;72.50;8.30;;;6.60;99.90;;;;;;4975344;28;20035;-67
2022/12/30 01:07:48;;;;;;;67.32;9.02;;;6.60;99.90;;;;;;4974820;28;20395;-67
2022/12/30 01:10:13;;;;;;;66.70;6.88;;;6.60;99.90;;;;;;4974641;28;20038;-67
2022/12/30 01:12:39;;;;;;;89.40;9.30;;;6.60;99.90;;;;;;4974162;28;20463;-67
2022/12/30 01:15:05;;;;;;;55.72;7.57;;;6.60;99.90;;;;;;4974646;28;20050;-67
2022/12/30 01:17:33;;;;;;;68.15;7.32;;;6.70;99.90;;;;;;4973548;28;20434;-67
2022/12/30 01:19:59;;;;;;;73.32;9.85;;;6.70;99.90;;;;;;4975007;28;20030;-67
2022/12/30 01:22:25;;;;;;;62.33;6.93;;;6.60;99.90;;;;;;4974502;28;20058;-67
2022/12/30 01:24:51;;;;;;;69.70;9.18;;;6.60;99.90;;;;;;4974247;28;20065;-67
2022/12/30 01:27:17;;;;;;;66.90;8.02;;;6.60;99.90;;;;;;4974350;28;20031;-67
2022/12/30 01:29:44;;;;;;;94.40;9.90;;;6.70;99.90;;;;;;4974297;28;20483;-67
2022/12/30 01:32:18;;;;;;;47.50;8.32;;;6.70;99.90;;;;;;4969542;28;20036;-67
2022/12/30 01:34:44;;;;;;;65.55;9.23;;;6.70;99.90;;;;;;4974277;28;20027;-67
2022/12/30 01:37:11;;;;;;;55.28;6.80;;;6.80;99.90;;;;;;4974572;28;20034;-67
2022/12/30 01:39:36;;;;;;;86.32;9.73;;;6.80;99.90;;;;;;4974216;28;20055;-67
2022/12/30 01:42:02;;;;;;;65.80;9.18;;;6.80;99.90;;;;;;4972487;28;20129;-67
2022/12/30 01:44:47;;;;;;;74.63;8.23;;;6.70;99.90;;;;;;4974379;28;20078;-67
2022/12/30 01:47:18;;;;;;;69.43;9.45;;;6.70;99.90;;;;;;4973974;28;20109;-67
2022/12/30 01:49:46;;;;;;;68.43;10.27;;;6.60;99.90;;;;;;4974514;28;20430;-67
2022/12/30 01:52:14;;;;;;;61.55;9.30;;;6.60;99.90;;;;;;4974741;28;20192;-67
2022/12/30 01:54:40;;;;;;;78.60;10.65;;;6.60;99.90;;;;;;4973955;28;20406;-67
2022/12/30 01:57:07;;;;;;;72.05;9.80;;;6.50;99.90;;;;;;4974007;28;20019;-67
2022/12/30 01:59:33;;;;;;;85.00;10.07;;;6.50;99.90;;;;;;4973178;28;20034;-67
2022/12/30 02:01:59;;;;;;;85.05;9.57;;;6.40;99.90;;;;;;4974050;28;20372;-67
2022/12/30 02:04:27;;;;;;;82.75;9.45;;;6.30;99.90;;;;;;4976617;28;20039;-67
2022/12/30 02:06:58;;;;;;;73.85;10.07;;;6.20;99.90;;;;;;4961855;28;20034;-67
2022/12/30 02:09:25;;;;;;;80.00;10.63;;;6.20;99.90;;;;;;4977421;28;20034;-67
2022/12/30 02:11:51;;;;;;;84.10;9.60;;;6.20;99.90;;;;;;4975691;28;20379;-67
2022/12/30 02:14:17;;;;;;;76.95;9.85;;;6.10;99.90;;;;;;4972184;28;20065;-67
2022/12/30 02:16:59;;;;;;;105.70;10.20;;;6.20;99.90;;;;;;4977790;28;20081;-67
2022/12/30 02:20:01;;;;;;;67.68;9.02;;;6.20;99.90;;;;;;4977805;28;20117;-67
2022/12/30 02:23:02;;;;;;;81.72;10.57;;;6.30;99.90;;;;;;4977402;28;20097;-67
2022/12/30 02:25:57;;;;;;;70.03;8.63;;;6.40;99.90;;;;;;4958530;28;20035;-67
2022/12/30 02:28:50;;;;;;;72.93;9.05;;;6.40;99.90;;;;;;4969802;28;20550;-67
2022/12/30 02:32:02;;;;;;;73.28;9.77;;;6.40;99.90;;;;;;4971305;28;20047;-67
2022/12/30 02:34:45;;;;;;;63.92;7.72;;;6.30;99.90;;;;;;4964590;28;20561;-67
2022/12/30 02:37:18;;;;;;;70.68;9.68;;;6.20;99.90;;;;;;4976852;28;20045;-67
2022/12/30 02:40:11;;;;;;;82.63;10.38;;;6.20;99.90;;;;;;4977330;28;20097;-67
2022/12/30 02:45:58;;;;;;;65.28;7.07;;;6.10;99.90;;;;;;4959775;28;20119;-67
2022/12/30 02:48:27;;;;;;;73.45;8.38;;;6.10;99.90;;;;;;4976542;28;20057;-67
2022/12/30 02:53:39;;;;;;;82.20;8.43;;;6.10;99.90;;;;;;4976686;28;20081;-67
2022/12/30 02:56:05;;;;;;;70.47;11.48;;;6.10;99.90;;;;;;4976345;28;20034;-67
2022/12/30 02:58:46;;;;;;;77.43;10.07;;;6.00;99.90;;;;;;4977102;28;20077;-67
2022/12/30 03:04:41;;;;;;;68.97;8.05;;;5.90;99.90;;;;;;4971438;28;20566;-67
2022/12/30 03:07:34;;;;;;;85.50;9.48;;;5.90;99.90;;;;;;4977126;28;20053;-67
2022/12/30 03:13:23;;;;;;;62.55;7.93;;;6.00;99.90;;;;;;4976675;28;20069;-67
2022/12/30 03:16:03;;;;;;;68.63;8.65;;;6.00;99.90;;;;;;4976077;28;20015;-67
2022/12/30 03:18:30;;;;;;;68.78;8.45;;;6.10;99.90;;;;;;4977058;28;20022;-67
2022/12/30 03:20:56;;;;;;;87.43;9.77;;;6.20;99.90;;;;;;4977119;28;20360;-67
2022/12/30 03:28:55;;;;;;;92.22;9.98;;;6.30;99.90;;;;;;4976776;28;20085;-67
2022/12/30 03:31:21;;;;;;;77.80;8.70;;;6.50;99.90;;;;;;4976057;28;20074;-67
2022/12/30 03:33:47;;;;;;;71.00;8.45;;;6.50;99.90;;;;;;4975781;28;20035;-67
2022/12/30 03:36:29;;;;;;;58.60;8.23;;;6.50;99.90;;;;;;4976609;28;20060;-67
2022/12/30 03:39:11;;;;;;;64.85;7.55;;;6.50;99.90;;;;;;4975492;28;20074;-67
2022/12/30 03:41:38;;;;;;;59.10;8.52;;;6.50;99.90;;;;;;4974574;28;20074;-67
2022/12/30 03:44:04;;;;;;;79.75;10.43;;;6.50;99.90;;;;;;4958566;28;20019;-67
2022/12/30 03:46:33;;;;;;;69.80;8.95;;;6.50;99.90;;;;;;4976392;28;20474;-67
2022/12/30 03:48:59;;;;;;;76.70;7.55;;;6.60;99.90;;;;;;4975843;28;20090;-67
2022/12/30 03:51:25;;;;;;;51.10;7.90;;;6.50;99.90;;;;;;4976583;28;20078;-67
2022/12/30 03:53:51;;;;;;;76.50;9.73;;;6.50;99.90;;;;;;5028701;23;20047;-70
2022/12/30 03:56:16;;;;;;;63.92;9.65;;;6.50;99.90;;;;;;4976051;28;20105;-69
2022/12/30 03:58:42;;;;;;;74.10;8.27;;;6.40;99.90;;;;;;4976499;28;20426;-69
2022/12/30 04:01:07;;;;;;;44.45;7.32;;;6.40;99.90;;;;;;4975538;28;20038;-69
2022/12/30 04:03:33;;;;;;;68.40;9.10;;;6.40;99.90;;;;;;4975223;28;20038;-69
2022/12/30 04:05:58;;;;;;;46.33;7.05;;;6.30;99.90;;;;;;4975807;28;20034;-69
2022/12/30 04:08:24;;;;;;;61.45;8.40;;;6.30;99.90;;;;;;4975706;28;20027;-69
2022/12/30 04:10:50;;;;;;;66.30;8.15;;;6.30;99.90;;;;;;4975829;28;20391;-69
2022/12/30 04:13:16;;;;;;;60.45;9.43;;;6.30;99.90;;;;;;4975817;28;20038;-69
2022/12/30 04:15:46;;;;;;;64.10;7.90;;;6.30;99.90;;;;;;4974603;28;20049;-69
2022/12/30 04:18:11;;;;;;;65.05;7.30;;;6.30;99.90;;;;;;4975746;28;20033;-69
2022/12/30 04:20:37;;;;;;;75.25;7.35;;;6.30;99.90;;;;;;4975427;28;20394;-69
2022/12/30 04:23:02;;;;;;;56.95;9.00;;;6.30;99.90;;;;;;4975100;28;20487;-70
2022/12/30 04:25:28;;;;;;;68.15;9.40;;;6.20;99.90;;;;;;4975170;28;20031;-69
2022/12/30 04:27:53;;;;;;;48.83;7.32;;;6.20;99.90;;;;;;4975188;28;20518;-69
2022/12/30 04:30:19;;;;;;;52.50;7.43;;;6.20;99.90;;;;;;4974069;28;20066;-69
2022/12/30 04:32:45;;;;;;;56.35;8.05;;;6.20;99.90;;;;;;4975133;28;20101;-69
2022/12/30 04:35:10;;;;;;;63.92;9.10;;;6.20;99.90;;;;;;4975360;28;20027;-69
2022/12/30 04:37:36;;;;;;;56.78;8.30;;;6.20;99.90;;;;;;4975189;28;20026;-69
2022/12/30 04:40:01;;;;;;;59.45;7.93;;;6.20;99.90;;;;;;4975216;28;20022;-70
2022/12/30 04:42:27;;;;;;;71.53;8.65;;;6.10;99.90;;;;;;4974997;28;20035;-69
2022/12/30 04:44:52;;;;;;;71.18;8.15;;;6.20;99.90;;;;;;4975278;28;20077;-69
2022/12/30 04:47:18;;;;;;;75.35;7.95;;;6.20;99.90;;;;;;4975547;28;20029;-69
2022/12/30 04:49:43;;;;;;;55.38;7.60;;;6.10;99.90;;;;;;4974472;28;20031;-69
2022/12/30 04:52:09;;;;;;;79.20;8.40;;;6.00;99.90;;;;;;4974654;28;20038;-70
2022/12/30 04:54:34;;;;;;;59.22;8.07;;;5.90;99.90;;;;;;4974743;28;20038;-69
2022/12/30 04:57:00;;;;;;;87.00;8.95;;;5.90;99.90;;;;;;4975356;28;20033;-70
2022/12/30 04:59:25;;;;;;;42.65;8.30;;;5.80;99.90;;;;;;4975066;28;20023;-69
2022/12/30 05:01:51;;;;;;;65.15;9.65;;;5.70;99.90;;;;;;4974833;28;20089;-70
2022/12/30 05:04:17;;;;;;;54.30;7.68;;;5.70;99.90;;;;;;4974942;28;20509;-70
2022/12/30 05:06:42;;;;;;;72.90;9.18;;;5.70;99.90;;;;;;4975190;28;20406;-69
2022/12/30 05:09:08;;;;;;;68.05;8.52;;;5.70;99.90;;;;;;4974641;28;20486;-69
2022/12/30 05:11:33;;;;;;;71.15;8.20;;;5.60;99.90;;;;;;4975001;28;20027;-69
2022/12/30 05:13:59;;;;;;;81.32;10.88;;;5.60;99.90;;;;;;4974728;28;20398;-69
2022/12/30 05:16:24;;;;;;;70.68;9.95;;;5.60;99.90;;;;;;4974453;28;20094;-69
2022/12/30 05:18:50;;;;;;;64.53;10.20;;;5.60;99.90;;;;;;4974753;28;20027;-69
2022/12/30 05:21:15;;;;;;;56.15;8.00;;;5.60;99.90;;;;;;4974768;28;20038;-69
2022/12/30 05:26:25;;;;;;;80.72;10.30;;;5.40;99.90;;;;;;4975073;28;20133;-69
2022/12/30 05:28:51;;;;;;;52.35;8.00;;;5.40;99.90;;;;;;4974489;28;20022;-69
2022/12/30 05:31:18;;;;;;;75.68;11.00;;;5.50;99.90;;;;;;4973057;28;20027;-69
2022/12/30 05:33:44;;;;;;;72.60;8.10;;;5.50;99.90;;;;;;4959587;28;20034;-70
2022/12/30 05:36:11;;;;;;;71.63;8.55;;;5.50;99.90;;;;;;4974716;28;20035;-69
2022/12/30 05:38:37;;;;;;;72.90;7.38;;;5.40;99.90;;;;;;4973397;28;20049;-70
2022/12/30 05:41:02;;;;;;;93.45;11.35;;;5.30;99.90;;;;;;4974306;28;20062;-70
2022/12/30 05:43:28;;;;;;;78.40;8.65;;;5.30;99.90;;;;;;4974179;28;20089;-70
2022/12/30 05:45:53;;;;;;;88.45;9.93;;;5.30;99.90;;;;;;4974358;28;20038;-69
2022/12/30 05:48:19;;;;;;;70.55;9.63;;;5.30;99.90;;;;;;4973175;28;20039;-69
2022/12/30 05:50:47;;;;;;;77.07;10.93;;;5.40;99.90;;;;;;4973943;28;20027;-70
2022/12/30 05:53:13;;;;;;;92.18;9.82;;;5.40;99.90;;;;;;4974253;28;20446;-69
2022/12/30 05:55:38;;;;;;;78.90;9.70;;;5.40;99.90;;;;;;4974450;28;20070;-70
2022/12/30 05:58:04;;;;;;;86.32;10.05;;;5.40;99.90;;;;;;4974628;28;20023;-69
2022/12/30 06:00:29;;;;;;;86.68;9.15;;;5.30;99.90;;;;;;4972763;28;20027;-70
2022/12/30 06:02:55;;;;;;;82.00;8.75;;;5.40;99.90;;;;;;4973844;28;20491;-70
2022/12/30 06:05:22;;;;;;;75.57;10.10;;;5.50;99.90;;;;;;4973245;28;20062;-69
2022/12/30 06:07:47;;;;;;;58.85;7.75;;;5.50;99.90;;;;;;4973891;28;20082;-69
2022/12/30 06:10:14;;;;;;;62.30;9.15;;;5.50;99.90;;;;;;4974031;28;20031;-69
2022/12/30 06:12:39;;;;;;;75.45;9.98;;;5.50;99.90;;;;;;4973702;28;20030;-70
2022/12/30 06:15:05;;;;;;;67.95;9.13;;;5.50;99.90;;;;;;4972930;28;20046;-69
2022/12/30 06:17:31;;;;;;;58.10;7.20;;;5.50;99.90;;;;;;4974691;28;20064;-69
2022/12/30 06:19:57;;;;;;;63.20;7.53;;;5.50;99.90;;;;;;4974073;28;20105;-69
2022/12/30 06:22:22;;;;;;;74.45;6.95;;;5.40;99.90;;;;;;4965591;28;20479;-69
2022/12/30 06:24:47;;;;;;;58.35;8.70;;;5.30;99.90;;;;;;4955348;28;20046;-69
2022/12/30 06:27:13;;;;;;;51.97;8.10;;;5.30;99.90;;;;;;4958003;28;20035;-70
2022/12/30 06:29:41;;;;;;;80.60;8.13;;;5.40;99.90;;;;;;4973674;28;20490;-69
2022/12/30 06:32:07;;;;;;;65.70;8.20;;;5.50;99.90;;;;;;4972776;28;20037;-69
2022/12/30 06:34:32;;;;;;;48.95;7.68;;;5.50;99.90;;;;;;4974518;28;20027;-69
2022/12/30 06:36:58;;;;;;;67.35;7.40;;;5.50;99.90;;;;;;4973567;28;20065;-70
2022/12/30 06:39:23;;;;;;;61.95;8.75;;;5.40;99.90;;;;;;4973907;28;20063;-70
2022/12/30 06:41:49;;;;;;;63.10;10.60;;;5.40;99.90;;;;;;4973354;28;20077;-69
2022/12/30 06:44:15;;;;;;;72.07;10.20;;;5.40;99.90;;;;;;4973755;28;20035;-70
2022/12/30 06:46:40;;;;;;;55.42;7.05;;;5.50;99.90;;;;;;4973152;28;20023;-70
2022/12/30 06:49:06;;;;;;;68.65;7.88;;;5.40;99.90;;;;;;4973891;28;20058;-70
2022/12/30 06:51:31;;;;;;;74.05;7.65;;;5.40;99.90;;;;;;4977551;28;20055;-69
2022/12/30 06:53:57;;;;;;;62.35;8.27;;;5.30;99.90;;;;;;4976598;28;20085;-69
2022/12/30 06:56:22;;;;;;;66.35;8.30;;;5.20;99.90;;;;;;4977331;28;20030;-69
2022/12/30 06:58:48;;;;;;;68.15;8.38;;;5.20;99.90;;;;;;4976982;28;20023;-69
2022/12/30 07:01:14;;;;;;;90.05;9.40;;;5.20;99.90;;;;;;4977168;28;20026;-69
2022/12/30 07:03:39;;;;;;;66.22;8.10;;;5.30;99.90;;;;;;4976744;28;20027;-70
2022/12/30 07:06:05;;;;;;;62.67;7.35;;;5.30;99.90;;;;;;4976836;28;20483;-69
2022/12/30 07:08:31;;;;;;;53.88;6.07;;;5.30;99.90;;;;;;4976947;28;20081;-69
2022/12/30 07:10:56;;;;;;;69.43;11.10;;;5.40;99.90;;;;;;4977092;28;20031;-69
2022/12/30 07:13:22;;;;;;;74.03;8.07;;;5.40;99.90;;;;;;4975695;28;20050;-69
2022/12/30 07:15:48;;;;;;;73.85;8.27;;;5.40;99.90;;;;;;4976375;28;20439;-70
2022/12/30 07:18:13;;;;;;;67.75;7.18;;;5.50;99.90;;;;;;4976976;28;20031;-69
2022/12/30 07:20:39;;;;;;;65.55;7.13;;;5.50;99.90;;;;;;4975972;28;20034;-70
2022/12/30 07:23:05;;;;;;;67.50;7.35;;;5.60;99.90;;;;;;4968281;28;20041;-70
2022/12/30 07:25:31;;;;;;;81.97;8.27;;;5.60;99.90;;;;;;4957182;29;20115;-69
2022/12/30 07:28:00;;;;;;;49.95;6.82;;;5.50;99.90;;;;;;4965699;28;20054;-69
2022/12/30 07:30:26;;;;;;;75.40;8.90;;;5.40;99.90;;;;;;4976472;28;20431;-69
2022/12/30 07:32:52;;;;;;;49.45;8.32;;;5.40;99.90;;;;;;4965503;28;20031;-69
2022/12/30 07:35:17;;;;;;;60.00;7.80;;;5.40;99.90;;;;;;4966180;28;20030;-69
2022/12/30 07:37:43;;;;;;;64.32;7.35;;;5.40;99.90;;;;;;4975948;28;20073;-69
2022/12/30 07:40:09;;;;;;;70.35;8.15;;;5.40;99.90;;;;;;4976055;28;20039;-69
2022/12/30 07:42:35;;;;;;;58.60;7.50;;;5.40;99.90;;;;;;4973871;28;20177;-70
2022/12/30 07:45:01;;;;;;;57.80;7.95;;;5.50;99.90;;;;;;4970859;28;20498;-69
2022/12/30 07:47:31;;;;;;;67.30;8.68;;;5.50;99.90;;;;;;4973442;28;20046;-69
2022/12/30 07:49:57;;;;;;;66.80;9.02;;;5.60;99.90;;;;;;4972878;28;20066;-69
2022/12/30 07:52:22;;;;;;;66.57;7.68;;;5.60;99.90;;;;;;4972723;28;20113;-69
2022/12/30 07:54:48;;;;;;;66.90;9.52;;;5.60;99.90;;;;;;4972466;28;20042;-69
2022/12/30 07:57:13;;;;;;;65.95;10.85;;;5.60;99.90;;;;;;4973695;28;20491;-71
2022/12/30 07:59:39;;;;;;;61.13;10.10;;;5.60;99.90;;;;;;4974288;28;20423;-69
2022/12/30 08:02:05;;;;;;;75.13;8.60;;;5.70;99.90;;;;;;4969438;28;20038;-70
2022/12/30 08:04:32;;;;;;;67.05;9.75;;;5.70;99.90;;;;;;4965761;28;20030;-69
2022/12/30 08:06:58;;;;;;;59.85;8.88;;;5.60;99.90;;;;;;4972187;28;20035;-70
2022/12/30 08:09:23;;;;;;;79.80;11.95;;;5.70;99.90;;;;;;4964070;28;20057;-70
2022/12/30 08:11:49;;;;;;;75.72;9.60;;;5.70;99.90;;;;;;4967816;28;20489;-70
2022/12/30 08:14:14;;;;;;;83.38;13.35;;;5.70;99.90;;;;;;4973950;28;20106;-70
2022/12/30 08:16:40;;;;;;;61.03;9.45;;;5.70;99.90;;;;;;4973773;28;20027;-70
2022/12/30 08:19:05;;;;;;;60.83;11.70;;;5.70;99.90;;;;;;4974257;28;20364;-70
2022/12/30 08:21:31;;;;;;;66.70;10.10;;;5.70;99.90;;;;;;4963508;28;20550;-71
2022/12/30 08:23:56;;;;;;;78.60;12.25;;;5.70;99.90;;;;;;4958118;28;20089;-71
2022/12/30 08:26:23;;;;;;;79.00;11.20;;;5.70;99.90;;;;;;4957644;28;20387;-71
2022/12/30 08:28:49;;;;;;;62.78;9.75;;;5.70;99.90;;;;;;4957620;28;20482;-71
2022/12/30 08:31:24;;;;;;;80.63;11.15;;;5.70;99.90;;;;;;4957624;28;20039;-71
2022/12/30 08:33:49;;;;;;;53.25;12.18;;;5.70;99.90;;;;;;4958171;28;20093;-70
2022/12/30 08:36:18;;;;;;;46.10;11.80;;;5.60;99.90;;;;;;4957687;28;20027;-70
2022/12/30 08:38:47;;;;;;;78.78;13.48;;;5.60;99.90;;;;;;4955551;28;20062;-70
2022/12/30 08:41:23;;;;;;;56.25;10.85;;;5.60;99.90;;;;;;4957547;28;20388;-71
2022/12/30 08:43:49;;;;;;;75.13;14.63;;;5.60;99.90;;;;;;4958200;28;20481;-70
2022/12/30 08:46:16;;;;;;;63.97;15.65;;;5.60;99.90;;;;;;4958544;28;20054;-71
2022/12/30 08:48:42;;;;;;;55.67;14.13;;;5.60;99.90;;;;;;4958020;28;20122;-71
2022/12/30 08:51:11;;;;;;;72.18;16.08;;;5.60;99.90;;;;;;4955832;28;20476;-72
2022/12/30 08:53:37;;;;;;;66.72;16.60;;;5.60;99.90;;;;;;4960142;28;20125;-71
2022/12/30 08:56:10;;;;;;;72.28;16.40;;;5.60;99.90;;;;;;4959326;28;20539;-71
2022/12/30 08:58:36;;;;;;;70.30;16.05;;;5.60;99.90;;;;;;4956790;28;20027;-72
2022/12/30 09:01:13;;;;;;;62.65;16.38;;;5.60;99.90;;;;;;4957622;28;20030;-71
2022/12/30 09:03:42;;;;;;;55.67;14.55;;;5.60;99.90;;;;;;4958837;28;20039;-71
2022/12/30 09:06:15;;;;;;;60.22;14.77;;;5.60;99.90;;;;;;4958046;28;20038;-71
2022/12/30 09:08:41;;;;;;;97.00;17.75;;;5.60;99.90;;;;;;4960422;28;20038;-71
2022/12/30 09:11:13;;;;;;;65.82;14.05;;;5.60;99.90;;;;;;4958051;28;20557;-71
2022/12/30 09:13:40;;;;;;;58.08;15.90;;;5.60;99.90;;;;;;4958020;28;20062;-72
2022/12/30 09:16:08;;;;;;;67.18;14.80;;;5.60;99.90;;;;;;4958390;28;20420;-71
2022/12/30 09:18:34;;;;;;;79.88;15.40;;;5.60;99.90;;;;;;4957771;28;20039;-71
2022/12/30 09:21:00;;;;;;;59.05;14.93;;;5.60;99.90;;;;;;4967069;28;20034;-71
2022/12/30 09:23:26;;;;;;;59.58;14.23;;;5.50;99.90;;;;;;4969949;28;20114;-71
2022/12/30 09:25:51;;;;;;;56.67;14.90;;;5.50;99.90;;;;;;4958084;28;20031;-72
2022/12/30 09:28:17;;;;;;;57.30;12.88;;;5.50;99.90;;;;;;4943333;28;20057;-71
2022/12/30 09:30:42;;;;;;;39.67;12.90;;;5.50;99.90;;;;;;4950918;28;20039;-71
2022/12/30 09:33:08;;;;;;;43.55;12.15;;;5.50;99.90;;;;;;4971080;28;20105;-71
2022/12/30 09:35:34;;;;;;;44.15;12.48;;;5.40;99.90;;;;;;4972254;28;20134;-71
2022/12/30 09:37:59;;;;;;;53.25;12.45;;;5.50;99.90;;;;;;4972830;28;20113;-71
2022/12/30 09:40:54;;;;;;;48.83;13.70;;;5.50;99.90;;;;;;4973288;28;20034;-70
2022/12/30 09:43:39;;;;;;;50.33;13.35;;;5.50;99.90;;;;;;4970834;28;20054;-71
2022/12/30 09:46:35;;;;;;;61.40;13.93;;;5.40;99.90;;;;;;4973019;28;20069;-72
2022/12/30 09:49:18;;;;;;;48.03;13.82;;;5.40;99.90;;;;;;4973470;28;20123;-70
2022/12/30 09:51:48;;;;;;;55.10;12.15;;;5.40;99.90;;;;;;4973211;28;20106;-71
2022/12/30 09:54:16;;;;;;;49.38;12.38;;;5.40;99.90;;;;;;4972820;28;20043;-71
2022/12/30 09:56:44;;;;;;;46.20;12.85;;;5.40;99.90;;;;;;4972769;28;20031;-70
2022/12/30 09:59:29;;;;;;;51.55;12.20;;;5.40;99.90;;;;;;4972855;28;20037;-70
2022/12/30 10:02:20;;;;;;;61.47;12.82;;;5.40;99.90;;;;;;4969460;28;20026;-71
2022/12/30 10:04:46;;;;;;;55.80;11.90;;;5.50;99.90;;;;;;4964767;28;20031;-71
2022/12/30 10:07:23;;;;;;;56.30;10.40;;;5.50;99.90;;;;;;4969023;28;20023;-71
2022/12/30 10:09:56;;;;;;;37.67;10.48;;;5.50;99.90;;;;;;4971321;28;20066;-71
2022/12/30 10:12:27;;;;;;;46.22;10.77;;;5.50;99.90;;;;;;4967620;28;20078;-70
2022/12/30 10:15:17;;;;;;;46.38;9.80;;;5.60;99.90;;;;;;4968281;28;20020;-71
2022/12/30 10:17:52;;;;;;;53.55;10.85;;;5.60;99.90;;;;;;4970515;28;20030;-71
2022/12/30 10:20:36;;;;;;;49.45;10.65;;;5.70;99.90;;;;;;4971377;28;20483;-71
2022/12/30 10:23:25;;;;;;;44.60;9.50;;;5.70;99.90;;;;;;4970647;28;20109;-72
2022/12/30 10:26:03;;;;;;;44.83;8.73;;;5.70;99.90;;;;;;4972996;28;20395;-72
2022/12/30 10:28:41;;;;;;;49.67;7.50;;;5.80;99.90;;;;;;4974930;28;20122;-71
2022/12/30 10:31:16;;;;;;;39.78;8.32;;;5.90;99.90;;;;;;4971434;28;20050;-71
2022/12/30 10:33:42;;;;;;;36.55;8.45;;;5.90;99.90;;;;;;4973407;28;20019;-70
2022/12/30 10:36:32;;;;;;;46.38;7.88;;;6.00;99.90;;;;;;4973541;28;20500;-71
2022/12/30 10:39:18;;;;;;;41.88;9.40;;;6.00;99.90;;;;;;4973200;28;20387;-71
2022/12/30 10:42:12;;;;;;;35.50;6.75;;;6.10;99.90;;;;;;4972870;28;20026;-70
2022/12/30 10:44:54;;;;;;;44.88;6.95;;;6.10;99.90;;;;;;4975012;28;20031;-70
2022/12/30 10:47:38;;;;;;;30.90;6.70;;;6.20;99.90;;;;;;4974533;28;20466;-71
2022/12/30 10:50:23;;;;;;;;;;;6.20;99.90;;;;;;4975073;28;20031;-71
2022/12/30 10:52:48;;;;;;;32.05;7.32;;;6.20;99.90;;;;;;4973837;28;19917;-70
2022/12/30 10:55:24;;;;;;;29.67;6.65;;;6.20;99.90;;;;;;4974443;28;20522;-70
2022/12/30 10:57:57;;;;;;;24.88;6.68;;;6.20;99.90;;;;;;4974726;28;20019;-70
2022/12/30 11:00:23;;;;;;;35.40;7.22;;;6.20;99.90;;;;;;4974550;28;20068;-70
2022/12/30 11:02:55;;;;;;;42.55;7.55;;;6.20;99.90;;;;;;4972442;28;20042;-70
2022/12/30 11:05:38;;;;;;;39.95;7.47;;;6.20;99.90;;;;;;4970297;28;20030;-70
2022/12/30 11:08:06;;;;;;;41.90;7.13;;;6.20;99.90;;;;;;4971605;28;20372;-70
2022/12/30 11:10:32;;;;;;;42.58;6.90;;;6.20;99.90;;;;;;4973556;28;20386;-70
2022/12/30 11:16:23;;;;;;;22.33;5.35;;;6.20;99.90;;;;;;4961053;28;20057;-73
2022/12/30 11:18:48;;;;;;;28.10;5.10;;;6.10;99.90;;;;;;4958660;28;20074;-71
2022/12/30 11:21:23;;;;;;;34.05;5.97;;;6.20;99.90;;;;;;4988536;23;22041;-68
2022/12/30 11:23:54;;;;;;;32.72;5.30;;;6.30;99.90;;;;;;4957812;29;20031;-67
2022/12/30 11:26:22;;;;;;;27.45;6.15;;;6.30;99.90;;;;;;4957337;28;20023;-67
2022/12/30 11:28:56;;;;;;;24.67;5.88;;;6.30;99.90;;;;;;4957374;28;20098;-67
2022/12/30 11:31:31;;;;;;;41.05;5.15;;;6.30;99.90;;;;;;4957504;28;20027;-68
2022/12/30 11:34:00;;;;;;;28.00;4.97;;;6.30;99.90;;;;;;4976971;28;20402;-67
2022/12/30 11:36:29;;;;;;;36.33;5.03;;;6.30;99.90;;;;;;4976775;28;20053;-67
2022/12/30 11:38:57;;;;;;;21.48;4.40;;;6.30;99.90;;;;;;4976431;28;20055;-67
2022/12/30 11:41:28;;;;;;;42.45;6.47;;;6.40;99.90;;;;;;4976427;28;20025;-67
2022/12/30 11:44:00;;;;;;;24.88;5.18;;;6.40;99.90;;;;;;4976716;28;20034;-67
2022/12/30 11:46:30;;;;;;;20.88;4.57;;;6.40;99.90;;;;;;4976495;28;20035;-67
2022/12/30 11:49:00;;;;;;;27.98;4.47;;;6.40;99.90;;;;;;4975091;28;20061;-68
2022/12/30 11:51:34;;;;;;;20.58;4.40;;;6.40;99.90;;;;;;4975970;28;20038;-67
2022/12/30 11:54:07;;;;;;;30.58;5.10;;;6.40;99.90;;;;;;4976618;28;20027;-67
2022/12/30 11:56:33;;;;;;;33.08;6.22;;;6.30;99.90;;;;;;4976266;28;20376;-68
2022/12/30 11:59:13;;;;;;;37.22;5.82;;;6.30;99.90;;;;;;4976055;28;20031;-68
2022/12/30 12:01:44;;;;;;;27.02;5.72;;;6.30;99.90;;;;;;4976307;28;20026;-69
2022/12/30 12:04:32;;;;;;;25.27;6.10;;;6.40;99.90;;;;;;4976013;28;20046;-68
2022/12/30 12:06:57;;;;;;;28.20;5.43;;;6.30;99.90;;;;;;4976102;28;20034;-69
2022/12/30 12:09:34;;;;;;;33.67;5.47;;;6.40;99.90;;;;;;4975895;28;20030;-68
2022/12/30 12:12:05;;;;;;;32.88;5.78;;;6.30;99.90;;;;;;4975581;28;20072;-68
2022/12/30 12:14:52;;;;;;;40.92;5.97;;;6.30;99.90;;;;;;4975380;28;20023;-69
2022/12/30 12:17:27;;;;;;;24.25;5.55;;;6.30;99.90;;;;;;4976134;28;20038;-68
2022/12/30 12:19:58;;;;;;;35.33;6.75;;;6.30;99.90;;;;;;4975587;28;20023;-69
2022/12/30 12:22:42;;;;;;;24.70;4.88;;;6.30;99.90;;;;;;4975599;28;20046;-68
2022/12/30 12:25:30;;;;;;;28.83;6.27;;;6.20;99.90;;;;;;4976272;28;20030;-68
2022/12/30 12:27:56;;;;;;;34.33;5.97;;;6.20;99.90;;;;;;4975462;28;20262;-69
2022/12/30 12:30:21;;;;;;;25.58;6.32;;;6.20;99.90;;;;;;4975582;28;20105;-68
2022/12/30 12:33:05;;;;;;;39.45;7.07;;;6.20;99.90;;;;;;4975688;28;20062;-69
2022/12/30 12:35:43;;;;;;;31.67;6.95;;;6.10;99.90;;;;;;4975809;28;20027;-68
2022/12/30 12:38:42;;;;;;;24.25;5.88;;;6.10;99.90;;;;;;4975608;28;20040;-68
2022/12/30 12:41:37;;;;;;;36.78;5.95;;;6.10;99.90;;;;;;4975381;28;20065;-68
2022/12/30 12:44:21;;;;;;;42.28;6.57;;;6.10;99.90;;;;;;4956191;28;20027;-68
2022/12/30 12:47:08;;;;;;;28.33;6.03;;;6.10;99.90;;;;;;4955579;28;20443;-67
2022/12/30 12:50:00;;;;;;;22.23;4.90;;;6.10;99.90;;;;;;4956215;28;20032;-67
2022/12/30 12:52:44;;;;;;;21.98;5.43;;;6.10;99.90;;;;;;4963699;28;20441;-67
2022/12/30 12:55:37;;;;;;;29.98;6.22;;;6.10;99.90;;;;;;4975488;28;20360;-67
2022/12/30 12:58:37;;;;;;;39.08;5.88;;;6.10;99.90;;;;;;4975175;28;20026;-67
2022/12/30 13:01:29;;;;;;;31.30;5.43;;;6.10;99.90;;;;;;4974856;28;20038;-67
2022/12/30 13:04:16;;;;;;;38.20;5.57;;;6.10;99.90;;;;;;4962161;28;20052;-68
2022/12/30 13:06:55;;;;;;;31.23;4.80;;;6.10;99.90;;;;;;4974346;28;20027;-67
2022/12/30 13:09:39;;;;;;;39.13;6.10;;;6.10;99.90;;;;;;4975434;28;20023;-67
2022/12/30 13:12:20;;;;;;;23.67;5.60;;;6.10;99.90;;;;;;4974792;28;20507;-67
2022/12/30 13:14:54;;;;;;;24.48;3.88;;;6.10;99.90;;;;;;4974729;28;20054;-67
2022/12/30 13:17:41;;;;;;;33.28;4.80;;;6.10;99.90;;;;;;4975099;28;20026;-67
2022/12/30 13:20:14;;;;;;;23.70;4.80;;;6.10;99.90;;;;;;4974702;28;20110;-67
2022/12/30 13:22:39;;;;;;;24.55;4.55;;;6.10;99.90;;;;;;4974480;28;20077;-68
2022/12/30 13:25:16;;;;;;;19.98;3.58;;;6.10;99.90;;;;;;4974694;28;20062;-67
2022/12/30 13:27:44;;;;;;;21.58;3.88;;;6.10;99.90;;;;;;4974998;28;20058;-67
2022/12/30 13:30:14;;;;;;;28.63;4.40;;;6.10;99.90;;;;;;4974675;28;20035;-67
2022/12/30 13:32:59;;;;;;;26.42;3.47;;;6.10;99.90;;;;;;4974523;28;20034;-67
2022/12/30 13:35:34;;;;;;;32.33;4.78;;;6.10;99.90;;;;;;4974806;28;20026;-67
2022/12/30 13:38:24;;;;;;;22.33;3.78;;;6.10;99.90;;;;;;4974826;28;20019;-67
2022/12/30 13:41:21;;;;;;;20.00;3.28;;;6.10;99.90;;;;;;4974428;28;20101;-67
2022/12/30 13:43:50;;;;;;;21.33;4.20;;;6.10;99.90;;;;;;4974156;28;20106;-67
2022/12/30 13:46:22;;;;;;;28.67;4.80;;;6.10;99.90;;;;;;4974440;28;20026;-67
2022/12/30 13:48:58;;;;;;;22.48;3.50;;;6.10;99.90;;;;;;4974051;28;20077;-67
2022/12/30 13:51:27;;;;;;;22.17;3.45;;;6.10;99.90;;;;;;4973996;28;20023;-67
2022/12/30 13:53:56;;;;;;;23.48;3.63;;;6.10;99.90;;;;;;4973869;28;20509;-67
2022/12/30 13:56:40;;;;;;;22.73;3.88;;;6.10;99.90;;;;;;4974140;28;20046;-67
2022/12/30 13:59:20;;;;;;;28.30;4.00;;;6.10;99.90;;;;;;4976286;28;20081;-67
2022/12/30 14:01:46;;;;;;;21.17;3.90;;;6.10;99.90;;;;;;4978390;28;20022;-67